createdAt,value
2023-04-04T00:03:01.733Z,-0.71
2023-04-04T00:06:05.404Z,-0.71
2023-04-04T00:09:08.829Z,-0.61
2023-04-04T00:12:12.624Z,-0.66
2023-04-04T00:15:15.642Z,-0.50
2023-04-04T00:18:19.071Z,-0.42
2023-04-04T00:21:24.078Z,-0.37
2023-04-04T00:24:27.355Z,-0.28
2023-04-04T00:27:30.596Z,-0.22
2023-04-04T00:30:34.965Z,-0.17
2023-04-04T00:33:38.213Z,-0.13
2023-04-04T00:36:41.880Z,-0.25
2023-04-04T00:39:45.028Z,-0.49
2023-04-04T00:42:48.890Z,-0.50
2023-04-04T00:45:52.509Z,-0.62
2023-04-04T00:48:56.191Z,-0.65
2023-04-04T00:51:59.423Z,-0.68
2023-04-04T00:55:04.055Z,-0.64
2023-04-04T00:58:07.522Z,-0.76
2023-04-04T01:01:12.140Z,-0.87
2023-04-04T01:04:15.719Z,-0.68
2023-04-04T01:07:19.730Z,-0.41
2023-04-04T01:10:23.437Z,-0.41
2023-04-04T01:13:27.548Z,-0.25
2023-04-04T01:16:31.036Z,-0.46
2023-04-04T01:19:39.296Z,-0.47
2023-04-04T01:22:46.266Z,-0.46
2023-04-04T01:25:49.708Z,-0.38
2023-04-04T01:28:54.425Z,-0.22
2023-04-04T01:32:29.795Z,-0.07
2023-04-04T01:35:38.889Z,-0.19
2023-04-04T01:39:10.135Z,-0.13
2023-04-04T01:42:14.773Z,-0.03
2023-04-04T01:45:21.445Z,0.09
2023-04-04T01:48:26.217Z,-0.06
2023-04-04T01:51:31.551Z,-0.04
2023-04-04T01:54:36.154Z,-0.12
2023-04-04T01:57:40.128Z,-0.30
2023-04-04T02:00:43.433Z,-0.40
2023-04-04T02:03:47.648Z,-0.40
2023-04-04T02:06:52.757Z,-0.17
2023-04-04T02:09:56.592Z,-0.39
2023-04-04T02:12:59.886Z,-0.15
2023-04-04T02:16:03.630Z,-0.18
2023-04-04T02:19:07.434Z,-0.20
2023-04-04T02:22:13.163Z,-0.20
2023-04-04T02:25:16.424Z,-0.30
2023-04-04T02:28:20.962Z,-0.38
2023-04-04T02:31:25.250Z,-0.30
2023-04-04T02:34:29.084Z,-0.29
2023-04-04T02:37:32.356Z,-0.36
2023-04-04T02:40:39.747Z,-0.45
2023-04-04T02:43:43.716Z,-0.37
2023-04-04T02:46:47.167Z,-0.15
2023-04-04T02:49:50.761Z,-0.29
2023-04-04T02:53:00.176Z,-0.28
2023-04-04T02:56:04.203Z,-0.27
2023-04-04T02:59:08.094Z,-0.31
2023-04-04T03:02:11.451Z,-0.47
2023-04-04T03:05:15.652Z,-0.72
2023-04-04T03:08:19.816Z,-0.99
2023-04-04T03:11:24.224Z,-0.81
2023-04-04T03:14:30.158Z,-1.19
2023-04-04T03:17:34.770Z,-1.04
2023-04-04T03:20:38.289Z,-0.94
2023-04-04T03:23:43.224Z,-0.93
2023-04-04T03:26:46.510Z,-1.05
2023-04-04T03:29:49.969Z,-1.07
2023-04-04T03:32:53.746Z,-1.21
2023-04-04T03:35:57.161Z,-1.35
2023-04-04T03:39:00.465Z,-1.43
2023-04-04T03:42:04.456Z,-1.47
2023-04-04T03:45:10.063Z,-1.39
2023-04-04T03:48:13.941Z,-1.37
2023-04-04T03:51:26.283Z,-1.44
2023-04-04T03:54:31.312Z,-1.47
2023-04-04T03:57:36.019Z,-1.40
2023-04-04T04:00:39.943Z,-1.19
2023-04-04T04:03:43.711Z,-1.29
2023-04-04T04:06:49.044Z,-1.29
2023-04-04T04:09:52.566Z,-1.42
2023-04-04T04:12:56.029Z,-1.58
2023-04-04T04:15:59.863Z,-1.70
2023-04-04T04:19:03.604Z,-1.76
2023-04-04T04:22:07.467Z,-1.86
2023-04-04T04:25:10.632Z,-2.00
2023-04-04T04:28:17.146Z,-2.10
2023-04-04T04:31:20.540Z,-2.20
2023-04-04T04:34:24.586Z,-2.34
2023-04-04T04:37:28.663Z,-2.35
2023-04-04T04:40:34.232Z,-2.37
2023-04-04T04:43:37.779Z,-2.32
2023-04-04T04:46:41.283Z,-2.29
2023-04-04T04:49:49.285Z,-2.16
2023-04-04T04:52:53.276Z,-2.05
2023-04-04T04:55:56.445Z,-2.01
2023-04-04T04:59:00.077Z,-1.92
2023-04-04T05:02:03.648Z,-1.85
2023-04-04T05:05:09.622Z,-1.74
2023-04-04T05:08:12.784Z,-1.72
2023-04-04T05:11:17.371Z,-1.67
2023-04-04T05:14:21.756Z,-1.59
2023-04-04T05:17:26.255Z,-1.54
2023-04-04T05:20:30.960Z,-1.46
2023-04-04T05:23:34.973Z,-1.27
2023-04-04T05:26:38.354Z,-1.11
2023-04-04T05:29:41.923Z,-1.11
2023-04-04T05:32:45.786Z,-0.99
2023-04-04T05:35:51.946Z,-0.84
2023-04-04T05:38:55.910Z,-0.69
2023-04-04T05:42:00.742Z,-0.49
2023-04-04T05:45:05.589Z,-0.35
2023-04-04T05:48:09.699Z,-0.07
2023-04-04T05:51:14.308Z,0.12
2023-04-04T05:54:18.507Z,0.12
2023-04-04T05:57:22.486Z,0.18
2023-04-04T06:00:28.223Z,0.35
2023-04-04T06:03:36.169Z,0.47
2023-04-04T06:06:41.158Z,0.74
2023-04-04T06:09:44.827Z,0.84
2023-04-04T06:12:48.140Z,1.28
2023-04-04T06:15:51.689Z,1.90
2023-04-04T06:18:56.427Z,2.32
2023-04-04T06:22:00.074Z,2.63
2023-04-04T06:25:04.569Z,3.21
2023-04-04T06:28:10.161Z,3.54
2023-04-04T06:31:15.704Z,3.76
2023-04-04T06:34:23.157Z,3.76
2023-04-04T06:37:27.448Z,3.68
2023-04-04T06:40:33.092Z,4.36
2023-04-04T06:43:36.388Z,4.34
2023-04-04T06:46:40.499Z,4.46
2023-04-04T06:49:43.663Z,4.82
2023-04-04T06:52:47.485Z,4.97
2023-04-04T06:55:51.950Z,5.00
2023-04-04T06:58:55.498Z,4.63
2023-04-04T07:01:59.505Z,4.46
2023-04-04T07:05:04.663Z,4.67
2023-04-04T07:08:08.158Z,4.44
2023-04-04T07:11:11.733Z,4.62
2023-04-04T07:14:14.889Z,4.74
2023-04-04T07:17:24.730Z,4.76
2023-04-04T07:20:30.782Z,4.36
2023-04-04T07:23:34.202Z,4.43
2023-04-04T07:26:37.485Z,4.43
2023-04-04T07:29:41.542Z,4.73
2023-04-04T07:32:44.782Z,4.79
2023-04-04T07:35:48.682Z,4.63
2023-04-04T07:38:52.198Z,4.53
2023-04-04T07:41:55.687Z,4.50
2023-04-04T07:45:00.362Z,4.52
2023-04-04T07:48:03.973Z,4.55
2023-04-04T07:51:07.096Z,4.47
2023-04-04T07:54:11.483Z,4.57
2023-04-04T07:57:14.631Z,4.75
2023-04-04T08:00:21.929Z,5.04
2023-04-04T08:03:25.899Z,5.63
2023-04-04T08:06:29.408Z,5.81
2023-04-04T08:09:34.614Z,6.27
2023-04-04T08:12:39.379Z,6.70
2023-04-04T08:15:42.622Z,6.75
2023-04-04T08:18:45.794Z,6.81
2023-04-04T08:21:50.191Z,7.08
2023-04-04T08:24:53.252Z,6.44
2023-04-04T08:27:57.126Z,6.26
2023-04-04T08:31:00.423Z,6.22
2023-04-04T08:34:04.818Z,5.67
2023-04-04T08:41:15.490Z,6.13
2023-04-04T08:44:27.589Z,6.64
2023-04-04T08:47:43.185Z,6.53
2023-04-04T08:51:03.109Z,6.70
2023-04-04T09:02:53.694Z,7.32
2023-04-04T09:10:35.185Z,7.53
2023-04-04T09:17:38.049Z,7.39
2023-04-04T09:21:05.432Z,7.39
2023-04-04T09:24:17.493Z,7.63
2023-04-04T09:27:21.852Z,7.64
2023-04-04T09:30:47.143Z,7.58
2023-04-04T09:34:15.475Z,7.19
2023-04-04T09:41:34.185Z,7.66
2023-04-04T09:45:49.288Z,7.79
2023-04-04T09:49:12.948Z,7.63
2023-04-04T09:52:51.021Z,7.93
2023-04-04T10:00:30.506Z,8.78
2023-04-04T10:04:16.333Z,8.24
2023-04-04T10:20:56.982Z,7.62
2023-04-04T10:24:47.207Z,7.79
2023-04-04T10:32:10.399Z,8.41
2023-04-04T10:35:43.439Z,8.37
2023-04-04T10:39:48.932Z,8.80
2023-04-04T10:42:53.934Z,8.93
2023-04-04T10:46:25.559Z,8.14
2023-04-04T10:49:55.198Z,8.40
2023-04-04T10:53:05.231Z,8.79
2023-04-04T10:56:13.077Z,8.81
2023-04-04T10:59:32.863Z,8.65
2023-04-04T11:02:59.099Z,9.21
2023-04-04T11:06:29.875Z,9.57
2023-04-04T11:10:27.915Z,9.93
2023-04-04T11:14:06.081Z,10.56
2023-04-04T11:18:26.566Z,10.67
2023-04-04T11:21:35.604Z,10.11
2023-04-04T11:26:11.745Z,10.10
2023-04-04T11:29:52.838Z,10.22
2023-04-04T11:33:14.420Z,10.88
2023-04-04T11:58:04.607Z,10.16
2023-04-04T12:01:42.773Z,9.83
2023-04-04T12:05:42.678Z,9.80
2023-04-04T12:17:06.049Z,10.86
2023-04-04T12:28:28.536Z,12.29
2023-04-04T12:37:06.658Z,11.21
2023-04-04T12:56:43.517Z,10.11
2023-04-04T13:13:55.250Z,10.50
2023-04-04T13:59:25.951Z,9.85
2023-04-04T14:07:10.996Z,9.63
2023-04-04T14:10:35.444Z,9.57
2023-04-04T14:14:12.464Z,9.47
2023-04-04T14:17:53.490Z,9.54
2023-04-04T14:29:47.252Z,9.43
2023-04-04T14:42:32.799Z,9.26
2023-04-04T15:10:52.256Z,9.05
2023-04-04T15:35:39.121Z,7.68
2023-04-04T15:44:19.957Z,7.40
2023-04-04T15:51:32.035Z,7.20
2023-04-04T15:55:52.579Z,7.05
2023-04-04T16:20:42.739Z,6.25
2023-04-04T16:23:50.298Z,6.13
2023-04-04T16:27:54.358Z,6.15
2023-04-04T16:35:28.662Z,6.10
2023-04-04T16:51:46.603Z,5.72
2023-04-04T16:54:22.039Z,5.86
2023-04-04T17:08:17.735Z,4.92
2023-04-04T17:33:37.470Z,3.81
2023-04-04T17:54:43.892Z,3.03
2023-04-04T18:15:21.260Z,2.41
2023-04-04T18:19:04.560Z,2.18
2023-04-04T18:26:58.671Z,2.06
2023-04-04T18:30:32.802Z,1.98
2023-04-04T18:42:11.446Z,1.11
2023-04-04T18:53:38.103Z,0.62
2023-04-04T19:03:13.240Z,0.67
2023-04-04T19:05:55.190Z,1.02
2023-04-04T19:25:43.051Z,0.82
2023-04-04T20:16:01.898Z,0.01
2023-04-04T21:36:56.709Z,-1.03
2023-04-04T22:07:25.161Z,-0.59
2023-04-04T22:23:47.454Z,-1.18
2023-04-04T23:24:25.080Z,-0.95
2023-04-04T23:28:06.801Z,-1.04
2023-04-04T23:31:27.464Z,-1.02
2023-04-04T23:46:53.948Z,-0.80
2023-04-04T23:55:30.273Z,-0.91
